Terminal Aerodrome Forecast
Issued by NWS Kansas City/Pleasant Hill, MO

Home | Current Version | Previous Version | Text Only | Print | Product List | Glossary On
Versions: 1 2 3 4 5 6 7 8 9 10 11 12
000
FTUS43 KEAX 061720
TAFMCI
TAF
KMCI 061720Z 0618/0718 20013G22KT P6SM SCT060
     FM062200 21014G22KT P6SM VCTS SCT025CB OVC030
      TEMPO 0623/0624 2SM TSRA OVC015CB
     FM070000 34010KT 3SM -TSRA SCT015CB OVC030
     FM070600 02012KT 6SM BR VCSH SCT015 OVC025=

USA.gov is the U.S. government's official web portal to all federal, state and local government web resources and services.